Time;durP1;ratioP1;P1;durP2;ratioP2;P2;SDS_P1;SDS_P2;PMS_P1;PMS_P2;Temp;Humidity;BMP_temperature;BMP_pressure;BME280_temperature;BME280_humidity;BME280_pressure;Samples;Min_cycle;Max_cycle;Signal;HPM_P1;HPM_P2
2022/01/20 00:00:16;;;;;;;17.20;3.67;;;7.20;78.90;;;;;;5097149;28;20043;-63
2022/01/20 00:02:42;;;;;;;15.70;4.07;;;7.20;78.90;;;;;;5095453;28;20024;-63
2022/01/20 00:07:48;;;;;;;17.47;4.03;;;7.20;79.00;;;;;;5097185;28;20031;-63
2022/01/20 00:26:24;;;;;;;19.10;4.07;;;7.10;79.00;;;;;;5095495;28;20036;-63
2022/01/20 00:28:55;;;;;;;14.40;3.70;;;7.10;79.00;;;;;;5096295;28;20525;-63
2022/01/20 00:34:10;;;;;;;14.90;3.83;;;7.10;79.00;;;;;;5096169;28;20399;-63
2022/01/20 00:39:04;;;;;;;13.80;3.23;;;7.10;79.00;;;;;;5095914;28;20036;-63
2022/01/20 00:41:29;;;;;;;18.80;4.03;;;7.20;79.00;;;;;;5095598;28;20021;-63
2022/01/20 00:43:55;;;;;;;17.27;3.40;;;7.20;78.90;;;;;;5096324;28;20085;-63
2022/01/20 00:46:20;;;;;;;14.67;2.90;;;7.20;79.20;;;;;;5078654;28;20039;-63
2022/01/20 00:48:46;;;;;;;14.23;3.93;;;7.20;78.80;;;;;;5096025;28;20032;-63
2022/01/20 00:51:12;;;;;;;14.83;3.37;;;7.30;78.90;;;;;;5096371;28;20043;-63
2022/01/20 00:53:43;;;;;;;17.13;3.93;;;7.30;78.80;;;;;;5093588;28;20061;-63
2022/01/20 00:56:12;;;;;;;15.00;2.70;;;7.30;78.70;;;;;;5095882;28;20402;-63
2022/01/20 00:58:38;;;;;;;15.63;3.50;;;7.30;78.70;;;;;;5095000;28;20028;-63
2022/01/20 01:01:04;;;;;;;18.13;3.17;;;7.30;78.70;;;;;;5096018;28;20463;-63
2022/01/20 01:03:30;;;;;;;15.07;3.60;;;7.30;78.70;;;;;;5094323;28;20070;-63
2022/01/20 01:06:10;;;;;;;15.40;2.97;;;7.30;78.60;;;;;;5095287;28;20173;-63
2022/01/20 01:08:37;;;;;;;14.87;3.17;;;7.30;78.50;;;;;;5094569;28;20455;-64
2022/01/20 01:11:03;;;;;;;14.53;2.43;;;7.30;78.50;;;;;;5094947;28;20077;-63
2022/01/20 01:13:30;;;;;;;11.90;2.77;;;7.30;78.50;;;;;;5094279;28;20465;-63
2022/01/20 01:15:55;;;;;;;19.43;3.33;;;7.30;78.60;;;;;;5095837;28;20353;-63
2022/01/20 01:21:15;;;;;;;10.50;2.37;;;7.30;78.60;;;;;;5095599;28;20028;-63
2022/01/20 01:23:43;;;;;;;13.87;3.30;;;7.30;78.60;;;;;;5095258;28;20093;-63
2022/01/20 01:26:16;;;;;;;10.03;2.30;;;7.20;78.60;;;;;;5094814;28;20019;-63
2022/01/20 01:28:43;;;;;;;13.10;2.77;;;7.20;78.50;;;;;;5093831;28;20143;-63
2022/01/20 01:31:33;;;;;;;17.80;2.97;;;7.30;78.50;;;;;;5095723;28;20364;-63
2022/01/20 01:34:04;;;;;;;12.73;2.67;;;7.30;78.40;;;;;;5093770;28;20062;-63
2022/01/20 01:36:44;;;;;;;16.85;3.05;;;7.30;78.50;;;;;;5093470;28;20053;-63
2022/01/20 01:39:10;;;;;;;14.60;3.40;;;7.30;78.50;;;;;;5083403;28;20123;-63
2022/01/20 01:41:37;;;;;;;15.67;4.30;;;7.30;78.60;;;;;;5075225;28;20109;-63
2022/01/20 01:44:07;;;;;;;13.53;2.93;;;7.30;78.60;;;;;;5094989;28;20028;-63
2022/01/20 01:46:35;;;;;;;16.37;3.70;;;7.20;78.60;;;;;;5080756;28;20020;-63
2022/01/20 01:49:00;;;;;;;20.90;3.53;;;7.20;78.60;;;;;;5093661;28;20399;-63
2022/01/20 01:51:26;;;;;;;17.80;3.13;;;7.20;78.60;;;;;;5093798;28;20036;-63
2022/01/20 01:53:53;;;;;;;11.50;2.53;;;7.20;78.50;;;;;;5093057;28;20460;-63
2022/01/20 01:56:21;;;;;;;14.73;2.77;;;7.20;78.50;;;;;;5093902;28;20085;-63
2022/01/20 01:58:47;;;;;;;12.03;2.37;;;7.30;78.60;;;;;;5093298;28;20024;-63
2022/01/20 02:01:16;;;;;;;17.50;2.27;;;7.30;78.50;;;;;;5094053;28;20069;-63
2022/01/20 02:03:45;;;;;;;16.07;2.83;;;7.30;78.40;;;;;;5093286;28;20034;-63
2022/01/20 02:19:57;;;;;;;11.00;2.17;;;7.40;78.30;;;;;;5093788;28;20032;-63
2022/01/20 02:22:33;;;;;;;16.17;2.60;;;7.40;78.30;;;;;;5093264;28;20089;-63
2022/01/20 02:25:28;;;;;;;12.53;2.23;;;7.40;78.40;;;;;;5092863;28;20035;-63
2022/01/20 02:27:58;;;;;;;11.80;1.93;;;7.40;78.30;;;;;;5096936;28;20330;-63
2022/01/20 02:30:26;;;;;;;11.23;1.97;;;7.40;78.40;;;;;;5093850;28;20052;-63
2022/01/20 02:32:53;;;;;;;11.37;2.07;;;7.40;78.50;;;;;;5093409;28;20060;-63
2022/01/20 02:35:19;;;;;;;9.93;2.97;;;7.40;78.50;;;;;;5094143;28;20097;-63
2022/01/20 02:37:47;;;;;;;13.17;2.53;;;7.40;78.50;;;;;;5092598;28;20115;-63
2022/01/20 02:40:33;;;;;;;12.73;2.23;;;7.40;78.50;;;;;;5083162;28;20021;-63
2022/01/20 02:45:42;;;;;;;14.87;2.20;;;7.30;79.10;;;;;;5089119;28;20161;-63
2022/01/20 02:48:08;;;;;;;8.10;2.13;;;7.30;78.40;;;;;;5092735;28;20107;-63
2022/01/20 02:50:35;;;;;;;12.57;2.53;;;7.30;78.30;;;;;;5092985;28;20091;-63
2022/01/20 02:53:00;;;;;;;9.53;2.57;;;7.30;78.20;;;;;;5094285;28;20353;-63
2022/01/20 02:55:26;;;;;;;9.33;1.87;;;7.40;78.20;;;;;;5092638;28;20183;-63
2022/01/20 02:57:52;;;;;;;12.57;1.97;;;7.40;78.10;;;;;;5092870;28;20035;-63
2022/01/20 03:00:19;;;;;;;7.17;2.00;;;7.40;78.00;;;;;;5093817;28;20024;-63
2022/01/20 03:02:46;;;;;;;10.00;1.80;;;7.40;78.00;;;;;;5094091;28;21853;-63
2022/01/20 03:05:11;;;;;;;5.77;1.60;;;7.30;77.90;;;;;;5093803;28;20028;-63
2022/01/20 03:07:39;;;;;;;10.20;1.87;;;7.40;78.00;;;;;;5092351;28;20030;-63
2022/01/20 03:10:06;;;;;;;8.13;2.90;;;7.30;77.90;;;;;;5092834;28;20413;-63
2022/01/20 03:12:32;;;;;;;9.67;2.17;;;7.40;78.00;;;;;;5093965;28;20070;-63
2022/01/20 03:14:58;;;;;;;8.60;1.80;;;7.30;77.90;;;;;;5092687;28;20052;-63
2022/01/20 03:17:23;;;;;;;8.23;2.03;;;7.30;77.90;;;;;;5092711;28;20032;-63
2022/01/20 03:19:49;;;;;;;10.47;2.80;;;7.40;77.90;;;;;;5094561;28;20028;-63
2022/01/20 03:22:15;;;;;;;11.50;3.07;;;7.40;77.80;;;;;;5096759;28;20112;-63
2022/01/20 03:24:40;;;;;;;12.83;2.03;;;7.40;77.70;;;;;;5097208;28;20023;-63
2022/01/20 03:27:06;;;;;;;9.77;2.20;;;7.40;77.70;;;;;;5096498;28;20038;-63
2022/01/20 03:29:32;;;;;;;14.67;2.73;;;7.40;77.80;;;;;;5096599;28;20101;-63
2022/01/20 03:31:59;;;;;;;11.17;2.40;;;7.40;77.80;;;;;;5097124;28;20070;-63
2022/01/20 03:34:25;;;;;;;10.10;2.13;;;7.40;77.80;;;;;;5096600;28;20024;-63
2022/01/20 03:36:56;;;;;;;7.87;2.30;;;7.40;77.80;;;;;;5096303;28;20020;-63
2022/01/20 03:39:32;;;;;;;10.53;1.83;;;7.40;77.70;;;;;;5096775;28;20032;-63
2022/01/20 03:41:58;;;;;;;9.87;1.67;;;7.40;77.70;;;;;;5096604;28;20131;-63
2022/01/20 03:44:27;;;;;;;14.37;2.83;;;7.40;77.70;;;;;;5095531;28;20142;-63
2022/01/20 03:46:53;;;;;;;8.70;2.13;;;7.40;77.70;;;;;;5096783;28;20059;-63
2022/01/20 03:49:27;;;;;;;10.73;2.20;;;7.40;77.70;;;;;;5096258;28;20139;-63
2022/01/20 03:51:54;;;;;;;8.53;1.97;;;7.40;77.70;;;;;;5092277;28;20024;-63
2022/01/20 03:54:20;;;;;;;11.40;2.27;;;7.40;77.80;;;;;;5096346;28;20028;-63
2022/01/20 03:57:04;;;;;;;10.20;1.90;;;7.40;77.80;;;;;;5093123;28;20046;-63
2022/01/20 03:59:48;;;;;;;13.93;2.00;;;7.40;77.80;;;;;;5079921;28;20062;-63
2022/01/20 04:02:19;;;;;;;10.80;2.13;;;7.40;78.00;;;;;;5077645;28;20031;-63
2022/01/20 04:04:50;;;;;;;9.52;1.90;;;7.40;78.00;;;;;;5095747;28;20020;-63
2022/01/20 04:07:20;;;;;;;9.07;2.53;;;7.40;77.90;;;;;;5079235;28;20058;-63
2022/01/20 04:09:46;;;;;;;12.27;2.20;;;7.40;77.90;;;;;;5096131;28;20342;-63
2022/01/20 04:12:12;;;;;;;9.60;1.60;;;7.40;77.90;;;;;;5095963;28;20043;-63
2022/01/20 04:14:45;;;;;;;9.90;2.07;;;7.40;77.90;;;;;;5096328;28;20146;-63
2022/01/20 04:17:17;;;;;;;9.80;2.03;;;7.40;77.80;;;;;;5095918;28;20040;-63
2022/01/20 04:19:43;;;;;;;10.73;2.45;;;7.40;77.80;;;;;;5095850;28;20349;-63
2022/01/20 04:22:08;;;;;;;12.43;2.30;;;7.50;77.70;;;;;;5094982;28;20027;-63
2022/01/20 04:24:34;;;;;;;7.37;1.73;;;7.50;77.70;;;;;;5095922;28;20032;-63
2022/01/20 04:27:00;;;;;;;7.40;1.10;;;7.50;77.70;;;;;;5096240;28;20024;-63
2022/01/20 04:29:27;;;;;;;9.20;2.43;;;7.50;77.70;;;;;;5095552;28;20052;-63
2022/01/20 04:31:53;;;;;;;10.30;1.87;;;7.50;77.60;;;;;;5094095;28;20044;-63
2022/01/20 04:34:19;;;;;;;5.93;1.43;;;7.50;78.30;;;;;;5095522;28;20028;-63
2022/01/20 04:36:47;;;;;;;9.50;1.70;;;7.40;77.50;;;;;;5095913;28;20398;-63
2022/01/20 04:39:17;;;;;;;7.97;1.83;;;7.50;77.50;;;;;;5095434;28;20024;-63
2022/01/20 04:41:44;;;;;;;10.07;1.60;;;7.50;77.40;;;;;;5095043;28;20024;-63
2022/01/20 04:44:19;;;;;;;10.10;2.33;;;7.50;77.30;;;;;;5095887;28;20119;-63
2022/01/20 04:46:58;;;;;;;10.80;3.03;;;7.50;77.20;;;;;;5095022;28;20421;-63
2022/01/20 04:57:28;;;;;;;11.27;1.83;;;7.40;76.90;;;;;;5094340;28;20453;-64
2022/01/20 04:59:54;;;;;;;9.50;1.97;;;7.40;76.80;;;;;;5095057;28;20020;-63
2022/01/20 05:02:24;;;;;;;13.47;2.27;;;7.40;76.80;;;;;;5077415;28;20074;-63
2022/01/20 05:04:53;;;;;;;10.13;2.27;;;7.40;76.80;;;;;;5095309;28;20111;-63
2022/01/20 05:07:46;;;;;;;9.90;2.10;;;7.40;76.70;;;;;;5092026;28;20046;-66
2022/01/20 05:10:13;;;;;;;11.53;2.50;;;7.40;76.60;;;;;;5094918;28;20055;-63
2022/01/20 05:15:21;;;;;;;10.70;2.57;;;7.40;76.60;;;;;;5092449;28;20069;-63
2022/01/20 05:17:48;;;;;;;11.00;2.10;;;7.40;76.60;;;;;;5091209;28;20478;-63
2022/01/20 05:20:13;;;;;;;10.00;1.67;;;7.40;76.60;;;;;;5108483;28;20054;-63
2022/01/20 05:22:39;;;;;;;10.97;2.23;;;7.40;76.50;;;;;;5091719;28;20024;-63
2022/01/20 05:25:07;;;;;;;9.53;2.40;;;7.40;76.40;;;;;;5092464;28;20039;-63
2022/01/20 05:27:33;;;;;;;10.53;2.07;;;7.40;76.40;;;;;;5090176;28;20024;-63
2022/01/20 05:29:59;;;;;;;8.37;2.00;;;7.30;76.40;;;;;;5093872;28;20101;-63
2022/01/20 05:32:26;;;;;;;13.40;2.23;;;7.30;76.40;;;;;;5093522;28;20338;-63
2022/01/20 05:34:52;;;;;;;10.03;1.60;;;7.40;76.40;;;;;;5077509;28;20107;-63
2022/01/20 05:37:17;;;;;;;7.97;1.67;;;7.40;76.40;;;;;;5077586;28;20487;-63
2022/01/20 05:39:44;;;;;;;6.57;1.73;;;7.40;76.40;;;;;;5093875;28;20032;-63
2022/01/20 05:42:13;;;;;;;12.57;2.60;;;7.30;76.40;;;;;;5100683;28;20012;-63
2022/01/20 05:44:50;;;;;;;6.57;1.80;;;7.30;76.20;;;;;;5094068;28;20021;-63
2022/01/20 05:47:18;;;;;;;11.67;2.00;;;7.30;76.10;;;;;;5094154;28;20542;-63
2022/01/20 05:50:15;;;;;;;9.63;2.53;;;7.30;75.90;;;;;;5092998;28;20036;-63
2022/01/20 05:52:43;;;;;;;10.50;1.97;;;7.30;75.70;;;;;;5093601;28;20188;-63
2022/01/20 05:55:16;;;;;;;11.27;2.30;;;7.30;75.70;;;;;;5094074;28;20084;-63
2022/01/20 05:57:43;;;;;;;10.00;2.50;;;7.30;75.50;;;;;;5093976;28;20024;-63
2022/01/20 06:00:17;;;;;;;11.33;2.50;;;7.30;75.50;;;;;;5093592;28;20028;-63
2022/01/20 06:05:31;;;;;;;11.90;2.17;;;7.30;75.30;;;;;;5093639;28;20047;-63
2022/01/20 06:07:57;;;;;;;13.60;2.20;;;7.30;75.20;;;;;;5092431;28;20055;-63
2022/01/20 06:10:23;;;;;;;12.97;2.07;;;7.30;75.00;;;;;;5092308;28;20024;-63
2022/01/20 06:12:49;;;;;;;19.70;3.03;;;7.30;74.80;;;;;;5074513;28;20479;-63
2022/01/20 06:15:14;;;;;;;11.07;2.73;;;7.30;74.50;;;;;;5093262;28;20496;-63
2022/01/20 06:17:41;;;;;;;12.60;2.53;;;7.30;74.30;;;;;;5092532;28;20115;-63
2022/01/20 06:20:11;;;;;;;10.10;1.87;;;7.30;74.10;;;;;;5091617;28;20024;-61
2022/01/20 06:22:38;;;;;;;10.17;2.30;;;7.30;73.90;;;;;;5091860;28;20123;-62
2022/01/20 06:25:05;;;;;;;14.63;2.80;;;7.30;73.80;;;;;;5091285;28;20103;-62
2022/01/20 06:27:32;;;;;;;9.27;2.37;;;7.30;73.60;;;;;;5092057;28;20024;-62
2022/01/20 06:29:58;;;;;;;10.17;2.10;;;7.30;73.40;;;;;;5093506;28;20048;-61
2022/01/20 06:32:23;;;;;;;8.80;1.70;;;7.30;73.20;;;;;;5093144;28;20016;-61
2022/01/20 06:34:49;;;;;;;8.07;2.20;;;7.30;72.90;;;;;;5087348;28;20409;-62
2022/01/20 06:37:15;;;;;;;11.37;2.00;;;7.30;72.70;;;;;;5093581;28;20089;-62
2022/01/20 06:39:41;;;;;;;12.97;2.20;;;7.30;72.50;;;;;;5093484;28;20127;-62
2022/01/20 06:42:07;;;;;;;8.50;2.20;;;7.30;72.10;;;;;;5094384;28;20062;-61
2022/01/20 06:44:32;;;;;;;12.07;1.97;;;7.30;71.70;;;;;;5093268;28;20024;-62
2022/01/20 06:46:58;;;;;;;11.57;1.93;;;7.30;71.40;;;;;;5092931;28;20023;-62
2022/01/20 06:49:29;;;;;;;10.68;2.72;;;7.30;71.10;;;;;;5093599;28;20023;-61
2022/01/20 06:51:57;;;;;;;13.10;1.97;;;7.30;70.90;;;;;;5076797;28;20032;-62
2022/01/20 06:54:23;;;;;;;8.40;2.37;;;7.30;70.70;;;;;;5084441;28;20038;-61
2022/01/20 06:56:48;;;;;;;11.37;2.03;;;7.20;70.40;;;;;;5093790;28;20036;-61
2022/01/20 06:59:16;;;;;;;12.43;3.00;;;7.20;70.40;;;;;;5093401;28;20074;-61
2022/01/20 07:01:43;;;;;;;10.77;2.23;;;7.20;70.10;;;;;;5093060;28;20020;-62
2022/01/20 07:04:16;;;;;;;8.97;1.77;;;7.20;69.90;;;;;;5092995;28;20024;-62
2022/01/20 07:06:42;;;;;;;8.23;2.10;;;7.20;69.70;;;;;;5110346;28;20052;-62
2022/01/20 07:09:27;;;;;;;6.67;1.73;;;7.10;70.00;;;;;;5090820;28;20093;-62
2022/01/20 07:11:56;;;;;;;6.57;1.50;;;7.00;70.20;;;;;;5093184;28;20795;-63
2022/01/20 07:14:21;;;;;;;9.83;1.43;;;6.90;70.30;;;;;;5092840;28;20096;-62
2022/01/20 07:16:48;;;;;;;8.33;2.10;;;6.80;71.00;;;;;;5092180;28;20111;-62
2022/01/20 07:19:14;;;;;;;6.60;1.77;;;6.90;70.30;;;;;;5083996;28;20414;-64
2022/01/20 07:21:40;;;;;;;8.50;1.60;;;6.90;70.20;;;;;;5092063;28;20024;-63
2022/01/20 07:24:10;;;;;;;13.43;2.03;;;6.90;70.10;;;;;;5075256;28;20043;-65
2022/01/20 07:26:36;;;;;;;5.97;1.63;;;6.90;70.10;;;;;;5090765;28;20059;-63
2022/01/20 07:29:08;;;;;;;9.47;1.83;;;6.90;70.00;;;;;;5107938;28;20056;-63
2022/01/20 07:31:35;;;;;;;5.43;1.60;;;6.90;69.90;;;;;;5091042;28;20064;-64
2022/01/20 07:34:01;;;;;;;7.63;2.07;;;6.90;69.90;;;;;;5091113;28;20038;-63
2022/01/20 07:36:26;;;;;;;4.67;1.23;;;6.90;69.80;;;;;;5091451;28;20074;-64
2022/01/20 07:38:52;;;;;;;6.33;1.37;;;6.90;69.70;;;;;;5090718;28;20433;-64
2022/01/20 07:41:19;;;;;;;6.90;1.60;;;6.80;69.60;;;;;;5091370;28;20020;-63
2022/01/20 07:43:45;;;;;;;8.43;2.03;;;6.80;69.50;;;;;;5092286;28;20100;-64
2022/01/20 07:46:29;;;;;;;11.33;2.03;;;6.80;69.50;;;;;;5092793;28;20032;-63
2022/01/20 07:49:04;;;;;;;10.83;1.97;;;6.70;69.50;;;;;;5092020;28;20027;-63
2022/01/20 07:51:30;;;;;;;9.80;2.40;;;6.70;69.40;;;;;;5091436;28;20085;-63
2022/01/20 07:53:57;;;;;;;9.57;2.10;;;6.70;69.30;;;;;;5092173;28;20021;-63
2022/01/20 07:56:23;;;;;;;7.53;1.43;;;6.70;69.30;;;;;;5090681;28;20024;-63
2022/01/20 07:58:49;;;;;;;12.87;2.13;;;6.70;69.30;;;;;;5091522;28;20026;-64
2022/01/20 08:01:15;;;;;;;12.80;1.80;;;6.70;69.20;;;;;;5075667;28;20107;-63
2022/01/20 08:03:49;;;;;;;9.93;1.60;;;6.70;69.20;;;;;;5091708;28;20076;-62
2022/01/20 08:06:20;;;;;;;9.30;2.13;;;6.70;69.10;;;;;;5092382;28;20024;-62
2022/01/20 08:08:46;;;;;;;13.83;2.47;;;6.70;69.10;;;;;;5106152;28;20027;-62
2022/01/20 08:11:29;;;;;;;10.97;2.27;;;6.70;69.10;;;;;;5097030;28;20028;-63
2022/01/20 08:14:15;;;;;;;13.13;2.30;;;6.80;69.20;;;;;;5095513;28;20081;-63
2022/01/20 08:16:41;;;;;;;8.07;1.73;;;6.70;69.10;;;;;;5095607;28;20104;-64
2022/01/20 08:19:09;;;;;;;7.17;1.97;;;6.80;69.20;;;;;;5094411;28;20024;-63
2022/01/20 08:21:34;;;;;;;12.03;2.43;;;6.80;69.20;;;;;;5092766;28;20029;-63
2022/01/20 08:24:01;;;;;;;10.83;2.57;;;6.80;69.10;;;;;;5092156;28;20035;-63
2022/01/20 08:26:27;;;;;;;9.70;1.73;;;6.80;69.10;;;;;;5094202;28;20020;-63
2022/01/20 08:28:52;;;;;;;10.77;2.77;;;6.80;69.00;;;;;;5094956;28;20070;-63
2022/01/20 08:31:18;;;;;;;12.50;2.17;;;6.80;69.00;;;;;;5093843;28;20042;-63
2022/01/20 08:33:44;;;;;;;8.93;1.90;;;6.90;69.10;;;;;;5096791;28;20368;-63
2022/01/20 08:36:15;;;;;;;10.60;1.70;;;6.90;69.00;;;;;;5084163;28;20464;-63
2022/01/20 08:38:48;;;;;;;11.10;2.43;;;6.90;68.90;;;;;;5095329;28;20081;-63
2022/01/20 08:41:14;;;;;;;6.60;1.70;;;6.90;68.80;;;;;;5095555;28;20359;-63
2022/01/20 08:43:40;;;;;;;12.57;2.60;;;6.90;68.80;;;;;;5095053;28;20039;-63
2022/01/20 08:46:10;;;;;;;9.60;2.03;;;7.00;68.80;;;;;;5094950;28;20023;-63
2022/01/20 08:48:37;;;;;;;15.07;2.50;;;7.10;68.70;;;;;;5095042;28;20034;-63
2022/01/20 08:51:21;;;;;;;10.57;2.50;;;7.10;68.60;;;;;;5092083;28;20033;-63
2022/01/20 08:53:56;;;;;;;11.43;2.37;;;7.20;68.50;;;;;;5079959;28;20081;-63
2022/01/20 08:56:25;;;;;;;14.63;2.37;;;7.20;69.00;;;;;;5093511;28;20028;-63
2022/01/20 08:58:51;;;;;;;14.80;2.03;;;7.20;68.30;;;;;;5077998;28;20342;-63
2022/01/20 09:01:16;;;;;;;8.03;2.27;;;7.30;68.20;;;;;;5094193;28;20031;-63
2022/01/20 09:03:43;;;;;;;11.10;2.13;;;7.40;68.00;;;;;;5094602;28;20032;-62
2022/01/20 09:06:09;;;;;;;13.82;2.28;;;7.50;67.80;;;;;;5094315;28;20024;-63
2022/01/20 09:08:43;;;;;;;10.87;2.10;;;7.50;67.60;;;;;;5094003;28;20368;-62
2022/01/20 09:11:19;;;;;;;16.50;3.27;;;7.40;67.70;;;;;;5093778;28;20055;-62
2022/01/20 09:16:37;;;;;;;13.67;2.20;;;7.40;67.90;;;;;;5094283;28;20028;-62
2022/01/20 09:19:13;;;;;;;6.97;1.90;;;7.30;68.20;;;;;;5093754;28;20029;-62
2022/01/20 09:21:45;;;;;;;10.48;2.20;;;7.30;68.40;;;;;;5094254;28;20024;-62
2022/01/20 09:24:10;;;;;;;11.90;2.43;;;7.20;68.40;;;;;;5095921;28;20448;-62
2022/01/20 09:26:36;;;;;;;13.60;2.03;;;7.20;68.60;;;;;;5095850;28;20024;-62
2022/01/20 09:29:04;;;;;;;10.37;2.23;;;7.20;68.70;;;;;;5094064;28;20075;-63
2022/01/20 09:31:37;;;;;;;9.17;1.93;;;7.10;68.80;;;;;;5094279;28;20024;-63
2022/01/20 09:34:05;;;;;;;8.67;1.53;;;7.10;69.00;;;;;;5095500;28;20044;-63
2022/01/20 09:36:33;;;;;;;9.60;2.07;;;7.10;69.20;;;;;;5092840;28;20027;-63
2022/01/20 09:38:59;;;;;;;11.53;1.90;;;7.00;69.20;;;;;;5093864;28;20035;-63
2022/01/20 09:41:44;;;;;;;10.83;2.60;;;7.10;69.40;;;;;;5098730;28;20030;-62
2022/01/20 09:44:11;;;;;;;10.43;2.77;;;7.10;69.40;;;;;;5094209;28;20024;-62
2022/01/20 09:46:39;;;;;;;10.50;2.57;;;7.00;69.40;;;;;;5094163;28;20028;-62
2022/01/20 09:49:17;;;;;;;7.83;2.00;;;7.10;69.50;;;;;;5093948;28;20028;-62
2022/01/20 09:51:44;;;;;;;9.57;1.97;;;7.10;69.50;;;;;;5094069;28;20356;-64
2022/01/20 09:54:18;;;;;;;10.83;2.43;;;7.10;69.40;;;;;;5093515;28;20066;-62
2022/01/20 09:56:57;;;;;;;10.67;2.03;;;7.30;69.30;;;;;;5098552;28;20467;-63
2022/01/20 09:59:25;;;;;;;9.20;1.83;;;7.50;69.00;;;;;;5094066;28;20036;-62
2022/01/20 10:01:56;;;;;;;10.07;2.17;;;7.60;68.80;;;;;;5094166;28;20097;-62
2022/01/20 10:04:32;;;;;;;9.10;1.80;;;7.70;68.60;;;;;;5077653;28;20031;-62
2022/01/20 10:07:04;;;;;;;9.23;1.90;;;7.80;68.60;;;;;;5094027;28;20013;-62
2022/01/20 10:09:41;;;;;;;9.17;2.17;;;7.90;68.40;;;;;;5093862;28;20034;-62
2022/01/20 10:12:35;;;;;;;8.77;1.83;;;8.00;68.20;;;;;;5052448;28;20033;-62
2022/01/20 10:15:11;;;;;;;9.13;2.03;;;8.20;67.90;;;;;;5053071;28;20035;-62
2022/01/20 10:17:45;;;;;;;6.13;1.60;;;8.20;67.80;;;;;;5036173;28;20228;-63
2022/01/20 10:20:13;;;;;;;9.70;1.90;;;8.30;67.70;;;;;;5035813;28;20120;-62
2022/01/20 10:23:12;;;;;;;7.77;2.17;;;8.50;67.20;;;;;;5033049;28;20310;-62
2022/01/20 10:26:19;;;;;;;5.78;1.88;;;8.80;66.70;;;;;;5037185;28;20476;-63
2022/01/20 10:28:57;;;;;;;7.00;1.53;;;9.00;66.30;;;;;;5042839;28;20478;-63
2022/01/20 10:31:46;;;;;;;8.05;2.08;;;8.90;66.30;;;;;;5052698;28;20025;-63
2022/01/20 10:34:30;;;;;;;10.17;2.13;;;8.80;66.40;;;;;;5035701;28;20032;-63
2022/01/20 10:37:04;;;;;;;9.13;2.05;;;8.70;66.60;;;;;;5052776;28;20036;-63
2022/01/20 10:39:43;;;;;;;11.77;2.30;;;8.50;67.00;;;;;;5052902;28;20105;-63
2022/01/20 10:42:34;;;;;;;13.50;2.50;;;8.40;67.20;;;;;;5052178;28;20035;-62
2022/01/20 10:45:00;;;;;;;10.30;2.28;;;8.40;67.40;;;;;;5052756;28;20075;-63
2022/01/20 10:47:30;;;;;;;12.77;2.50;;;8.30;67.50;;;;;;5036338;28;20429;-63
2022/01/20 10:50:21;;;;;;;8.63;2.53;;;8.20;67.40;;;;;;5086826;28;20036;-63
2022/01/20 10:52:52;;;;;;;11.53;1.93;;;8.10;67.50;;;;;;5057620;28;20442;-63
2022/01/20 10:55:39;;;;;;;9.43;2.00;;;8.00;67.80;;;;;;5076068;28;20064;-63
2022/01/20 10:58:23;;;;;;;8.13;2.23;;;8.30;67.70;;;;;;5093798;28;20028;-63
2022/01/20 11:00:51;;;;;;;7.80;1.77;;;8.50;67.20;;;;;;5093964;28;20046;-62
2022/01/20 11:03:19;;;;;;;10.48;2.80;;;8.50;66.80;;;;;;5093340;28;20020;-63
2022/01/20 11:05:50;;;;;;;8.67;2.37;;;8.60;66.70;;;;;;5092848;28;20111;-62
2022/01/20 11:08:25;;;;;;;10.00;2.40;;;8.70;66.50;;;;;;5093291;28;20027;-63
2022/01/20 11:10:52;;;;;;;9.77;1.97;;;8.90;66.20;;;;;;5093158;28;20080;-63
2022/01/20 11:13:30;;;;;;;8.38;2.58;;;9.10;65.90;;;;;;5092798;28;20153;-63
2022/01/20 11:15:57;;;;;;;9.07;1.70;;;9.30;65.40;;;;;;5092953;28;20020;-63
2022/01/20 11:18:27;;;;;;;8.73;2.00;;;9.40;65.00;;;;;;5092706;28;20020;-63
2022/01/20 11:20:55;;;;;;;11.67;2.43;;;9.40;64.60;;;;;;5092918;28;20107;-63
2022/01/20 11:23:36;;;;;;;10.75;1.75;;;9.20;64.70;;;;;;5076436;28;20023;-62
2022/01/20 11:26:14;;;;;;;8.98;2.03;;;9.10;64.60;;;;;;5091553;28;20023;-63
2022/01/20 11:28:59;;;;;;;7.75;1.90;;;9.10;64.80;;;;;;5093650;28;20046;-62
2022/01/20 11:31:54;;;;;;;11.00;2.00;;;9.00;64.50;;;;;;5080215;28;20352;-62
2022/01/20 11:34:36;;;;;;;;;;;8.90;64.20;;;;;;5092958;28;20035;-63
2022/01/20 11:37:09;;;;;;;9.70;1.45;;;8.90;64.40;;;;;;5092595;28;19912;-63
2022/01/20 11:39:35;;;;;;;7.78;1.40;;;8.90;64.10;;;;;;5092451;28;20170;-63
2022/01/20 11:42:01;;;;;;;6.97;1.85;;;8.90;64.00;;;;;;5096430;28;20052;-63
2022/01/20 11:44:29;;;;;;;9.02;1.50;;;8.90;63.90;;;;;;5092499;28;20501;-63
2022/01/20 11:47:05;;;;;;;10.43;2.10;;;8.80;63.60;;;;;;5095331;28;20027;-63
2022/01/20 11:49:36;;;;;;;8.27;1.60;;;8.90;63.40;;;;;;5094525;28;20032;-63
2022/01/20 11:52:02;;;;;;;5.72;1.25;;;8.80;63.30;;;;;;5095063;28;20139;-63
2022/01/20 11:54:43;;;;;;;9.80;1.90;;;8.70;63.50;;;;;;5095292;28;20104;-63
2022/01/20 11:57:11;;;;;;;7.03;1.42;;;8.60;63.30;;;;;;5094667;28;20119;-63
2022/01/20 11:59:45;;;;;;;6.45;1.42;;;8.50;63.60;;;;;;5095659;28;20032;-63
2022/01/20 12:02:27;;;;;;;7.35;1.42;;;8.40;63.80;;;;;;5091161;28;20028;-63
2022/01/20 12:04:56;;;;;;;7.50;1.50;;;8.40;64.40;;;;;;5092435;28;20021;-63
2022/01/20 12:07:42;;;;;;;7.72;1.42;;;8.20;65.00;;;;;;5094140;28;20105;-63
2022/01/20 12:10:11;;;;;;;6.30;1.43;;;8.00;65.70;;;;;;5095512;28;20032;-63
2022/01/20 12:12:38;;;;;;;5.28;1.10;;;7.90;66.30;;;;;;5095136;28;20110;-63
2022/01/20 12:15:08;;;;;;;6.13;1.57;;;7.80;66.70;;;;;;5095347;28;20089;-63
2022/01/20 12:17:34;;;;;;;8.85;1.50;;;7.70;67.10;;;;;;5094913;28;20093;-64
2022/01/20 12:19:59;;;;;;;5.97;1.52;;;7.60;67.50;;;;;;5096980;28;20126;-63
2022/01/20 12:22:25;;;;;;;6.40;1.50;;;7.60;67.90;;;;;;5096044;28;20024;-62
2022/01/20 12:24:53;;;;;;;9.00;1.50;;;7.50;68.20;;;;;;5096621;28;20462;-63
2022/01/20 12:27:20;;;;;;;7.47;1.60;;;7.50;68.50;;;;;;5095223;28;20024;-62
2022/01/20 12:29:46;;;;;;;5.40;1.53;;;7.50;68.70;;;;;;5096463;28;20058;-63
2022/01/20 12:32:14;;;;;;;4.60;1.67;;;7.50;68.80;;;;;;5096532;28;20114;-63
2022/01/20 12:34:40;;;;;;;6.33;1.20;;;7.60;68.90;;;;;;5096195;28;20101;-63
2022/01/20 12:37:07;;;;;;;4.27;1.20;;;7.60;69.00;;;;;;5096083;28;20089;-63
2022/01/20 12:39:35;;;;;;;6.28;1.50;;;7.60;68.90;;;;;;5095801;28;20036;-62
2022/01/20 12:42:07;;;;;;;4.90;1.10;;;7.60;69.00;;;;;;5095080;28;20421;-62
2022/01/20 12:45:03;;;;;;;5.38;1.63;;;7.70;69.00;;;;;;5095131;28;20038;-63
2022/01/20 12:47:30;;;;;;;8.60;1.75;;;7.80;68.90;;;;;;5096113;28;20020;-62
2022/01/20 12:49:58;;;;;;;9.90;1.97;;;7.80;68.50;;;;;;5096190;28;20024;-62
2022/01/20 12:52:23;;;;;;;7.27;1.37;;;8.00;68.20;;;;;;5094188;28;20046;-63
2022/01/20 12:54:50;;;;;;;11.97;2.17;;;8.10;67.90;;;;;;5095769;28;20056;-62
2022/01/20 12:57:17;;;;;;;7.73;1.73;;;8.20;67.60;;;;;;5095555;28;20027;-62
2022/01/20 12:59:45;;;;;;;9.00;2.17;;;8.20;67.30;;;;;;5082981;28;20032;-62
2022/01/20 13:02:23;;;;;;;11.00;2.22;;;8.10;66.90;;;;;;5095560;28;20384;-62
2022/01/20 13:04:55;;;;;;;10.07;2.10;;;8.20;66.80;;;;;;5096615;28;20120;-62
2022/01/20 13:07:21;;;;;;;12.55;2.45;;;8.20;66.60;;;;;;5096541;28;20385;-62
2022/01/20 13:10:00;;;;;;;7.82;1.52;;;8.20;66.40;;;;;;5095502;28;20070;-62
2022/01/20 13:12:38;;;;;;;9.88;2.10;;;8.20;66.30;;;;;;5096459;28;20036;-62
2022/01/20 13:15:16;;;;;;;15.80;2.53;;;8.20;66.10;;;;;;5095697;28;20039;-62
2022/01/20 13:17:43;;;;;;;6.82;1.63;;;8.20;66.00;;;;;;5076311;28;20120;-62
2022/01/20 13:20:19;;;;;;;9.98;2.50;;;8.20;65.80;;;;;;5075723;28;20094;-62
2022/01/20 13:22:56;;;;;;;7.25;1.80;;;8.20;65.70;;;;;;5076297;28;20028;-62
2022/01/20 13:25:31;;;;;;;11.73;2.47;;;8.10;65.60;;;;;;5076417;28;20357;-62
2022/01/20 13:28:02;;;;;;;7.15;2.08;;;8.10;65.40;;;;;;5075534;28;20028;-62
2022/01/20 13:30:41;;;;;;;10.70;1.70;;;8.10;65.40;;;;;;5075788;28;20076;-62
2022/01/20 13:33:18;;;;;;;12.00;2.67;;;8.10;65.50;;;;;;5083807;28;20039;-62
2022/01/20 13:35:46;;;;;;;7.03;1.58;;;8.10;65.20;;;;;;5095957;28;20024;-62
2022/01/20 13:38:12;;;;;;;10.73;2.08;;;8.00;64.90;;;;;;5095983;28;20190;-62
2022/01/20 13:40:43;;;;;;;5.53;1.65;;;8.00;64.80;;;;;;5095441;28;20100;-62
2022/01/20 13:45:56;;;;;;;9.57;2.30;;;8.10;64.70;;;;;;5096002;28;20028;-62
2022/01/20 13:48:32;;;;;;;6.78;1.85;;;8.10;64.60;;;;;;5094626;28;20035;-62
2022/01/20 13:50:59;;;;;;;7.20;1.83;;;8.00;64.40;;;;;;5090138;28;20032;-62
2022/01/20 13:53:27;;;;;;;13.50;2.00;;;8.10;64.50;;;;;;5091954;28;20073;-62
2022/01/20 13:55:56;;;;;;;8.10;1.97;;;8.10;64.40;;;;;;5081268;28;20028;-62
2022/01/20 13:58:27;;;;;;;9.23;1.95;;;8.00;64.40;;;;;;5092006;28;20045;-61
2022/01/20 14:00:55;;;;;;;9.57;1.88;;;8.00;64.40;;;;;;5080157;28;20116;-62
2022/01/20 14:03:21;;;;;;;8.98;2.33;;;7.90;64.40;;;;;;5088775;28;20353;-62
2022/01/20 14:05:47;;;;;;;9.47;2.20;;;7.90;64.40;;;;;;5095064;28;20113;-62
2022/01/20 14:08:13;;;;;;;6.43;1.80;;;7.90;64.40;;;;;;5094070;28;20032;-62
2022/01/20 14:10:39;;;;;;;7.97;2.17;;;8.00;64.50;;;;;;5077789;28;20039;-62